Terminal Aerodrome Forecast
Issued by NWS

Home | Current Version | Previous Version | Graphics & Text | Print | Product List | Glossary On
Versions: 1 2 3 4 5 6 7 8 9 10 11 12 13 14 15 16 17
000
FTUS43 KTOP 142300
TAFMHK
TAF
KMHK 142320Z 1500/1524 16009KT P6SM SCT040
     FM151500 01009KT 3SM -DZ BR OVC012
     FM152000 03007KT 6SM BR BKN025=

USA.gov is the U.S. government's official web portal to all federal, state and local government web resources and services.